Time;durP1;ratioP1;P1;durP2;ratioP2;P2;SDS_P1;SDS_P2;PMS_P1;PMS_P2;Temp;Humidity;BMP_temperature;BMP_pressure;BME280_temperature;BME280_humidity;BME280_pressure;Samples;Min_cycle;Max_cycle;Signal;HPM_P1;HPM_P2
2021/11/03 00:00:47;;;;;;;112.28;43.70;;;8.80;99.90;;;;;;5073358;28;20425;-93
2021/11/03 00:03:14;;;;;;;90.97;38.28;;;8.90;99.90;;;;;;5054702;28;20056;-94
2021/11/03 00:05:46;;;;;;;89.43;36.90;;;8.90;99.90;;;;;;5055021;28;20079;-94
2021/11/03 00:08:14;;;;;;;79.05;35.33;;;9.00;99.90;;;;;;5055226;28;20100;-93
2021/11/03 00:10:43;;;;;;;83.15;35.67;;;9.00;99.90;;;;;;5054887;28;20021;-92
2021/11/03 00:13:13;;;;;;;83.68;37.83;;;9.00;99.90;;;;;;5055075;28;20095;-94
2021/11/03 00:15:39;;;;;;;77.97;36.47;;;9.10;99.90;;;;;;5055487;28;20025;-93
2021/11/03 00:18:06;;;;;;;70.22;34.35;;;9.00;99.90;;;;;;5054796;28;20556;-93
2021/11/03 00:20:33;;;;;;;69.05;35.03;;;9.10;99.90;;;;;;5054937;28;20456;-93
2021/11/03 00:23:00;;;;;;;67.00;33.42;;;9.10;99.90;;;;;;5055043;28;20033;-93
2021/11/03 00:25:26;;;;;;;63.05;32.80;;;9.10;99.90;;;;;;5054916;28;20067;-93
2021/11/03 00:27:52;;;;;;;63.75;33.35;;;9.10;99.90;;;;;;5054978;28;20021;-94
2021/11/03 00:30:18;;;;;;;60.35;32.67;;;9.10;99.90;;;;;;5054663;28;20032;-94
2021/11/03 00:32:44;;;;;;;70.80;34.70;;;9.10;99.90;;;;;;5054942;28;20021;-94
2021/11/03 00:35:11;;;;;;;70.57;35.50;;;9.10;99.90;;;;;;5054499;28;20028;-93
2021/11/03 00:37:37;;;;;;;87.80;38.92;;;9.10;99.90;;;;;;5054303;28;20035;-94
2021/11/03 00:40:05;;;;;;;95.82;42.72;;;9.10;99.90;;;;;;5054539;28;20025;-93
2021/11/03 00:42:31;;;;;;;87.25;41.70;;;9.20;99.90;;;;;;5053837;28;20035;-94
2021/11/03 00:44:56;;;;;;;89.18;42.20;;;9.20;99.90;;;;;;5053755;28;20380;-93
2021/11/03 00:47:22;;;;;;;88.40;43.28;;;9.20;99.90;;;;;;5054171;28;20017;-93
2021/11/03 00:49:48;;;;;;;100.28;44.03;;;9.20;99.90;;;;;;5054001;28;20483;-93
2021/11/03 00:52:14;;;;;;;108.40;45.60;;;9.20;99.90;;;;;;5053928;28;20029;-93
2021/11/03 00:54:39;;;;;;;101.88;43.80;;;9.20;99.90;;;;;;5054402;28;20060;-93
2021/11/03 00:57:06;;;;;;;112.25;45.15;;;9.20;99.90;;;;;;5054497;28;20047;-93
2021/11/03 00:59:32;;;;;;;102.82;42.58;;;9.20;99.90;;;;;;5054102;28;20025;-94
2021/11/03 01:01:57;;;;;;;93.40;42.72;;;9.20;99.90;;;;;;5054209;28;20094;-94
2021/11/03 01:04:23;;;;;;;96.47;41.75;;;9.20;99.90;;;;;;5037175;28;20037;-94
2021/11/03 01:06:51;;;;;;;85.72;40.28;;;9.20;99.90;;;;;;5055155;28;20059;-93
2021/11/03 01:09:17;;;;;;;66.68;34.38;;;9.20;99.90;;;;;;5053965;28;20383;-94
2021/11/03 01:11:42;;;;;;;70.38;35.33;;;9.20;99.90;;;;;;5053807;28;20082;-93
2021/11/03 01:14:10;;;;;;;72.13;36.38;;;9.20;99.90;;;;;;5053927;28;20477;-93
2021/11/03 01:16:37;;;;;;;65.47;34.47;;;9.20;99.90;;;;;;5055574;28;20106;-94
2021/11/03 01:19:04;;;;;;;55.53;30.50;;;9.20;99.90;;;;;;5054187;28;20021;-94
2021/11/03 01:21:30;;;;;;;65.30;34.03;;;9.30;99.90;;;;;;5054643;28;20029;-94
2021/11/03 01:23:55;;;;;;;68.80;36.35;;;9.20;99.90;;;;;;5037319;28;20028;-93
2021/11/03 01:26:21;;;;;;;64.03;35.10;;;9.10;99.90;;;;;;5053158;28;20017;-93
2021/11/03 01:28:47;;;;;;;70.82;36.75;;;9.10;99.90;;;;;;5053916;28;20025;-93
2021/11/03 01:31:13;;;;;;;69.47;34.60;;;9.10;99.90;;;;;;5053828;28;20075;-93
2021/11/03 01:33:40;;;;;;;63.63;32.95;;;9.10;99.90;;;;;;5053221;28;20052;-94
2021/11/03 01:36:06;;;;;;;69.88;36.85;;;9.20;99.90;;;;;;5053462;28;20028;-94
2021/11/03 01:38:32;;;;;;;67.47;36.50;;;9.10;99.90;;;;;;5053417;28;20391;-94
2021/11/03 01:40:57;;;;;;;71.68;36.58;;;9.10;99.90;;;;;;5053321;28;20037;-94
2021/11/03 01:43:45;;;;;;;69.00;36.13;;;9.20;99.90;;;;;;5052978;28;20044;-92
2021/11/03 01:46:22;;;;;;;72.97;38.30;;;9.20;99.90;;;;;;5053573;28;20031;-95
2021/11/03 01:48:49;;;;;;;70.10;37.50;;;9.20;99.90;;;;;;5053661;28;20079;-93
2021/11/03 01:51:21;;;;;;;72.05;37.28;;;9.20;99.90;;;;;;5053391;28;20382;-93
2021/11/03 01:53:48;;;;;;;77.30;41.00;;;9.30;99.90;;;;;;5053555;28;20021;-93
2021/11/03 01:56:16;;;;;;;82.35;41.05;;;9.20;99.90;;;;;;5052741;28;20029;-94
2021/11/03 01:58:52;;;;;;;79.13;40.40;;;9.20;99.90;;;;;;5053333;28;20025;-94
2021/11/03 02:01:19;;;;;;;82.18;41.33;;;9.20;99.90;;;;;;5036979;28;20361;-94
2021/11/03 02:03:47;;;;;;;80.40;39.53;;;9.20;99.90;;;;;;5052953;28;20024;-93
2021/11/03 02:06:17;;;;;;;73.95;38.85;;;9.20;99.90;;;;;;5053045;28;20095;-93
2021/11/03 02:08:45;;;;;;;76.60;36.03;;;9.20;99.90;;;;;;5052870;28;20025;-93
2021/11/03 02:11:12;;;;;;;71.30;37.55;;;9.30;99.90;;;;;;5052770;28;20078;-93
2021/11/03 02:13:39;;;;;;;70.80;36.67;;;9.30;99.90;;;;;;5053477;28;20032;-93
2021/11/03 02:16:09;;;;;;;67.60;37.83;;;9.40;99.90;;;;;;5054884;28;20029;-94
2021/11/03 02:18:35;;;;;;;72.80;36.75;;;9.30;99.90;;;;;;5053689;28;20021;-93
2021/11/03 02:21:02;;;;;;;67.28;36.50;;;9.30;99.90;;;;;;5052753;28;20025;-93
2021/11/03 02:23:36;;;;;;;72.88;35.20;;;9.30;99.90;;;;;;5053325;28;20029;-94
2021/11/03 02:26:18;;;;;;;67.65;35.25;;;9.30;99.90;;;;;;5052924;28;20082;-93
2021/11/03 02:28:47;;;;;;;82.40;38.35;;;9.40;99.90;;;;;;5053503;28;20079;-94
2021/11/03 02:31:32;;;;;;;69.80;35.33;;;9.30;99.90;;;;;;5052788;28;20025;-93
2021/11/03 02:33:59;;;;;;;63.10;33.72;;;9.40;99.90;;;;;;5053129;28;20541;-92
2021/11/03 02:36:25;;;;;;;63.55;34.42;;;9.40;99.90;;;;;;5053158;28;20025;-94
2021/11/03 02:38:51;;;;;;;64.45;35.20;;;9.40;99.90;;;;;;5053090;28;20085;-92
2021/11/03 02:41:26;;;;;;;66.93;35.75;;;9.40;99.90;;;;;;5052818;28;20037;-92
2021/11/03 02:43:56;;;;;;;68.32;35.33;;;9.40;99.90;;;;;;5052773;28;20021;-93
2021/11/03 02:46:21;;;;;;;73.50;35.47;;;9.40;99.90;;;;;;5053030;28;20060;-92
2021/11/03 02:48:47;;;;;;;83.47;38.95;;;9.40;99.90;;;;;;5052634;28;20056;-93
2021/11/03 02:51:35;;;;;;;74.00;36.85;;;9.30;99.90;;;;;;5052466;28;20113;-92
2021/11/03 02:54:05;;;;;;;75.82;37.42;;;9.40;99.90;;;;;;5051984;28;20041;-93
2021/11/03 02:56:37;;;;;;;68.73;33.33;;;9.30;99.90;;;;;;5052585;28;20056;-92
2021/11/03 02:59:08;;;;;;;69.65;34.75;;;9.30;99.90;;;;;;5052667;28;20039;-94
2021/11/03 03:01:47;;;;;;;63.97;33.50;;;9.30;99.90;;;;;;5053099;28;20476;-92
2021/11/03 03:04:19;;;;;;;59.85;32.70;;;9.40;99.90;;;;;;5052386;28;20017;-92
2021/11/03 03:06:45;;;;;;;59.38;33.00;;;9.30;99.90;;;;;;5052905;28;20028;-93
2021/11/03 03:09:11;;;;;;;68.55;34.70;;;9.40;99.90;;;;;;5054139;28;20024;-93
2021/11/03 03:11:39;;;;;;;65.70;35.25;;;9.40;99.90;;;;;;5056297;28;20115;-92
2021/11/03 03:14:08;;;;;;;75.03;35.97;;;9.40;99.90;;;;;;5056283;28;20116;-92
2021/11/03 03:16:34;;;;;;;66.97;35.50;;;9.40;99.90;;;;;;5056532;28;20111;-92
2021/11/03 03:19:01;;;;;;;65.82;34.65;;;9.40;99.90;;;;;;5056152;28;20025;-92
2021/11/03 03:21:29;;;;;;;67.30;35.50;;;9.40;99.90;;;;;;5055862;28;20028;-92
2021/11/03 03:23:56;;;;;;;71.05;36.60;;;9.30;99.90;;;;;;5055971;28;20416;-92
2021/11/03 03:26:22;;;;;;;72.35;37.50;;;9.40;99.90;;;;;;5074349;28;20107;-93
2021/11/03 03:28:49;;;;;;;72.13;36.90;;;9.40;99.90;;;;;;5075545;28;20088;-92
2021/11/03 03:31:15;;;;;;;75.32;39.08;;;9.40;99.90;;;;;;5075541;28;20032;-92
2021/11/03 03:33:42;;;;;;;70.72;37.38;;;9.40;99.90;;;;;;5075538;28;20162;-92
2021/11/03 03:36:08;;;;;;;73.55;39.67;;;9.40;99.90;;;;;;5076692;28;20024;-93
2021/11/03 03:38:35;;;;;;;69.93;37.70;;;9.40;99.90;;;;;;5075463;28;20050;-94
2021/11/03 03:41:02;;;;;;;64.80;35.65;;;9.40;99.90;;;;;;5075130;28;20066;-93
2021/11/03 03:43:28;;;;;;;63.20;35.42;;;9.50;99.90;;;;;;5075578;28;20115;-93
2021/11/03 03:45:54;;;;;;;61.97;36.60;;;9.50;99.90;;;;;;5075682;28;20017;-93
2021/11/03 03:48:20;;;;;;;63.10;34.67;;;9.50;99.90;;;;;;5075265;28;20028;-92
2021/11/03 03:50:46;;;;;;;59.90;33.42;;;9.50;99.90;;;;;;5075435;28;20025;-92
2021/11/03 03:53:12;;;;;;;73.47;37.17;;;9.60;99.90;;;;;;5075419;28;20111;-93
2021/11/03 03:55:39;;;;;;;65.00;36.33;;;9.50;99.90;;;;;;5075533;28;20028;-92
2021/11/03 03:58:07;;;;;;;65.45;34.88;;;9.50;99.90;;;;;;5075682;28;20069;-92
2021/11/03 04:00:35;;;;;;;65.70;35.85;;;9.60;99.90;;;;;;5075153;28;20043;-93
2021/11/03 04:03:00;;;;;;;64.68;35.30;;;9.50;99.90;;;;;;5075253;28;20052;-93
2021/11/03 04:05:26;;;;;;;68.00;36.25;;;9.60;99.90;;;;;;5075165;28;20593;-92
2021/11/03 04:07:52;;;;;;;67.57;36.33;;;9.60;99.90;;;;;;5075731;28;20032;-92
2021/11/03 04:10:19;;;;;;;73.28;38.22;;;9.60;99.90;;;;;;5076068;28;20035;-92
2021/11/03 04:12:45;;;;;;;67.63;35.40;;;9.60;99.90;;;;;;5074509;28;20040;-92
2021/11/03 04:15:13;;;;;;;75.85;38.92;;;9.60;99.90;;;;;;5075287;28;20086;-94
2021/11/03 04:17:39;;;;;;;73.10;37.33;;;9.50;99.90;;;;;;5074679;28;20046;-93
2021/11/03 04:20:07;;;;;;;70.65;36.17;;;9.50;99.90;;;;;;5074622;28;20029;-92
2021/11/03 04:22:32;;;;;;;68.43;37.67;;;9.50;99.90;;;;;;5075504;28;20029;-92
2021/11/03 04:24:58;;;;;;;73.45;39.47;;;9.50;99.90;;;;;;5074687;28;20042;-93
2021/11/03 04:27:24;;;;;;;68.13;36.58;;;9.50;99.90;;;;;;5074762;28;20031;-93
2021/11/03 04:29:51;;;;;;;73.85;38.42;;;9.50;99.90;;;;;;5041938;28;20029;-94
2021/11/03 04:32:17;;;;;;;71.78;36.90;;;9.50;99.90;;;;;;5077643;28;20026;-94
2021/11/03 04:34:43;;;;;;;66.72;36.58;;;9.50;99.90;;;;;;5081992;28;20108;-93
2021/11/03 04:37:09;;;;;;;74.53;38.97;;;9.50;99.90;;;;;;5071101;28;20032;-93
2021/11/03 04:39:35;;;;;;;74.25;38.33;;;9.40;99.90;;;;;;5074703;28;20036;-93
2021/11/03 04:42:00;;;;;;;67.70;35.60;;;9.40;99.90;;;;;;5054491;28;20056;-93
2021/11/03 04:44:26;;;;;;;65.95;36.53;;;9.50;99.90;;;;;;5054662;28;20471;-94
2021/11/03 04:46:52;;;;;;;63.10;35.20;;;9.50;99.90;;;;;;5037664;28;20029;-94
2021/11/03 04:49:18;;;;;;;71.97;38.83;;;9.50;99.90;;;;;;5056289;28;20021;-94
2021/11/03 15:42:44;;;;;;;734.25;155.88;;;7.90;99.90;;;;;;5153133;27;20725;-90
2021/11/03 15:45:11;;;;;;;680.05;155.88;;;7.80;99.90;;;;;;5151939;27;20080;-90
2021/11/03 15:47:37;;;;;;;1049.78;211.25;;;7.80;99.90;;;;;;5152039;27;20030;-90
2021/11/03 15:50:13;;;;;;;921.67;235.85;;;7.90;99.90;;;;;;5152438;27;20481;-90
2021/11/03 15:52:39;;;;;;;864.00;231.82;;;7.90;99.90;;;;;;5152464;27;20019;-90
2021/11/03 15:55:06;;;;;;;1387.60;276.42;;;8.00;99.90;;;;;;5152078;27;20079;-90
2021/11/03 15:57:32;;;;;;;1612.97;295.38;;;8.10;99.90;;;;;;5151965;27;20037;-90
2021/11/03 15:59:58;;;;;;;1705.25;320.48;;;8.20;99.90;;;;;;5153086;27;20022;-90
2021/11/03 16:02:25;;;;;;;1787.88;342.27;;;8.30;99.90;;;;;;5130938;28;20363;-90
2021/11/03 16:04:55;;;;;;;1550.82;355.15;;;8.30;99.90;;;;;;5131209;28;20080;-90
2021/11/03 16:07:23;;;;;;;1215.90;331.70;;;8.40;99.90;;;;;;5131147;28;20467;-93
2021/11/03 16:09:52;;;;;;;1014.75;296.45;;;8.40;99.90;;;;;;5131012;28;20023;-90
2021/11/03 16:12:20;;;;;;;589.95;227.23;;;8.50;99.90;;;;;;5151414;27;20023;-90
2021/11/03 16:14:47;;;;;;;942.92;312.70;;;8.50;99.90;;;;;;5152171;27;20015;-91
2021/11/03 16:17:25;;;;;;;1232.38;314.88;;;8.50;99.90;;;;;;5151863;27;20027;-91
2021/11/03 16:19:52;;;;;;;862.15;255.05;;;8.50;99.90;;;;;;5152259;27;20015;-91
2021/11/03 16:22:35;;;;;;;1001.35;282.85;;;8.50;99.90;;;;;;5151306;27;20456;-90
2021/11/03 16:25:01;;;;;;;823.38;273.10;;;8.50;99.90;;;;;;5151605;27;20023;-91
2021/11/03 16:27:30;;;;;;;1025.32;325.27;;;8.50;99.90;;;;;;5151736;27;20049;-91
2021/11/03 16:29:56;;;;;;;1006.78;311.65;;;8.50;99.90;;;;;;5151123;27;20478;-91
2021/11/03 16:32:23;;;;;;;641.03;239.27;;;8.50;99.90;;;;;;5151486;27;20030;-90
2021/11/03 16:34:50;;;;;;;967.55;315.13;;;8.40;99.90;;;;;;5150680;27;20029;-91
2021/11/03 16:37:16;;;;;;;759.60;274.73;;;8.40;99.90;;;;;;5151304;27;20389;-90
2021/11/03 16:39:42;;;;;;;1057.05;303.20;;;8.40;99.90;;;;;;5150966;27;20481;-90
2021/11/03 16:42:23;;;;;;;493.75;237.75;;;8.40;99.90;;;;;;5150807;27;20493;-90
2021/11/03 16:44:54;;;;;;;1016.95;301.92;;;8.40;99.90;;;;;;5151054;27;20023;-91
2021/11/03 16:47:23;;;;;;;;;;;8.30;99.90;;;;;;5150904;27;20018;-91
2021/11/03 16:49:50;;;;;;;1083.60;319.05;;;8.30;99.90;;;;;;5150223;27;20019;-92
2021/11/03 16:52:15;;;;;;;711.92;268.38;;;8.30;99.90;;;;;;5147304;27;20038;-90
2021/11/03 16:54:41;;;;;;;706.40;282.98;;;8.30;99.90;;;;;;5136584;27;20015;-90
2021/11/03 16:57:07;;;;;;;874.03;322.98;;;8.30;99.90;;;;;;5137109;27;20066;-90
2021/11/03 16:59:34;;;;;;;923.72;336.00;;;8.30;99.90;;;;;;5136818;27;20122;-90
2021/11/03 17:01:59;;;;;;;978.75;336.20;;;8.30;99.90;;;;;;5136210;27;20077;-90
2021/11/03 17:04:26;;;;;;;735.60;283.42;;;8.30;99.90;;;;;;5136237;27;20492;-89
2021/11/03 17:06:53;;;;;;;931.67;345.83;;;8.30;99.90;;;;;;5136014;27;20035;-90
2021/11/03 17:09:27;;;;;;;827.97;316.33;;;8.30;99.90;;;;;;5138048;27;20074;-90
2021/11/03 17:11:53;;;;;;;928.97;360.05;;;8.30;99.90;;;;;;5136844;27;20034;-90
2021/11/03 17:14:26;;;;;;;754.00;322.60;;;8.20;99.90;;;;;;5136536;27;20496;-90
2021/11/03 17:16:53;;;;;;;1372.18;445.35;;;8.20;99.90;;;;;;5135867;27;20485;-91
2021/11/03 17:19:21;;;;;;;1342.80;416.88;;;8.20;99.90;;;;;;5136111;27;20030;-91
2021/11/03 17:21:50;;;;;;;781.13;389.70;;;8.20;99.90;;;;;;5136589;27;20023;-92
2021/11/03 17:24:16;;;;;;;917.38;458.02;;;8.20;99.90;;;;;;5136640;27;20080;-95
2021/11/03 17:27:06;;;;;;;1345.82;497.52;;;8.10;99.90;;;;;;5138513;27;20019;-95
2021/11/03 17:29:43;;;;;;;1049.45;426.08;;;8.00;99.90;;;;;;5141554;27;20015;-95
2021/11/03 17:32:18;;;;;;;862.90;388.15;;;8.00;99.90;;;;;;5138169;27;20027;-96
2021/11/03 17:34:44;;;;;;;785.75;356.08;;;8.00;99.90;;;;;;5136539;27;20039;-94
2021/11/03 17:37:10;;;;;;;1428.00;502.02;;;8.10;99.90;;;;;;5137414;27;20423;-93
2021/11/03 17:39:37;;;;;;;1390.95;489.73;;;8.00;99.90;;;;;;5136136;27;20076;-93
2021/11/03 17:42:04;;;;;;;768.35;372.27;;;8.00;99.90;;;;;;5136051;27;20505;-93
2021/11/03 17:44:37;;;;;;;1122.30;416.15;;;8.00;99.90;;;;;;5136333;27;20045;-94
2021/11/03 17:47:06;;;;;;;934.25;363.73;;;8.00;99.90;;;;;;5136474;27;20768;-94
2021/11/03 17:49:37;;;;;;;950.65;320.60;;;8.00;99.90;;;;;;5135900;27;20034;-94
2021/11/03 17:52:04;;;;;;;935.63;333.20;;;8.00;99.90;;;;;;5137077;27;20023;-94
2021/11/03 17:54:30;;;;;;;503.30;247.32;;;8.00;99.90;;;;;;5135603;27;20156;-94
2021/11/03 17:56:58;;;;;;;804.38;331.60;;;8.00;99.90;;;;;;5136724;27;20028;-94
2021/11/03 17:59:29;;;;;;;759.42;318.25;;;8.00;99.90;;;;;;5136647;27;20016;-94
2021/11/03 18:01:55;;;;;;;1258.78;375.27;;;8.00;99.90;;;;;;5135930;27;20027;-94
2021/11/03 18:04:24;;;;;;;816.10;325.88;;;8.00;99.90;;;;;;5135419;27;20508;-94
2021/11/03 18:06:52;;;;;;;751.83;324.17;;;8.00;99.90;;;;;;5135553;27;20484;-94
2021/11/03 18:09:18;;;;;;;825.85;320.05;;;8.00;99.90;;;;;;5135686;27;20023;-94
2021/11/03 18:11:47;;;;;;;636.28;271.30;;;8.00;99.90;;;;;;5135289;27;20031;-94
2021/11/03 18:14:29;;;;;;;479.90;223.00;;;8.00;99.90;;;;;;5135810;27;20019;-96
2021/11/03 18:16:56;;;;;;;1051.43;326.25;;;8.00;99.90;;;;;;5135701;27;20075;-95
2021/11/03 18:19:26;;;;;;;878.35;289.65;;;8.00;99.90;;;;;;5135628;27;20023;-94
2021/11/03 18:21:55;;;;;;;1008.50;300.08;;;8.10;99.90;;;;;;5135550;27;20035;-95
2021/11/03 18:24:21;;;;;;;405.38;157.02;;;8.10;99.90;;;;;;5135496;27;20042;-94
2021/11/03 18:26:51;;;;;;;719.13;182.30;;;8.10;99.90;;;;;;5135298;27;20019;-94
2021/11/03 18:29:22;;;;;;;438.27;125.55;;;8.20;99.90;;;;;;5135193;27;20027;-95
2021/11/03 18:31:49;;;;;;;291.02;96.28;;;8.20;99.90;;;;;;5135208;27;20397;-94
2021/11/03 18:34:18;;;;;;;596.03;139.02;;;8.30;99.90;;;;;;5135302;27;20557;-94
2021/11/03 18:36:44;;;;;;;175.88;69.22;;;8.30;99.90;;;;;;5135292;27;20059;-94
2021/11/03 18:39:10;;;;;;;248.48;83.25;;;8.30;99.90;;;;;;5135154;27;20136;-93
2021/11/03 18:41:42;;;;;;;154.70;66.22;;;8.40;99.90;;;;;;5134314;27;20488;-94
2021/11/03 18:44:28;;;;;;;150.07;60.17;;;8.50;99.90;;;;;;5135121;27;20024;-93
2021/11/03 18:46:55;;;;;;;475.27;96.47;;;8.40;99.90;;;;;;5135040;27;20121;-94
2021/11/03 18:49:23;;;;;;;135.23;50.35;;;8.50;99.90;;;;;;5135026;27;20031;-93
2021/11/03 18:51:54;;;;;;;155.60;52.38;;;8.50;99.90;;;;;;5134948;27;20084;-93
2021/11/03 18:54:30;;;;;;;;;;;8.50;99.90;;;;;;5135119;27;20027;-93
2021/11/03 18:56:57;;;;;;;346.02;69.97;;;8.50;99.90;;;;;;5134815;27;19945;-94
2021/11/03 18:59:24;;;;;;;261.38;59.45;;;8.50;99.90;;;;;;5134333;27;20106;-94
2021/11/03 19:01:51;;;;;;;202.13;53.65;;;8.50;99.90;;;;;;5134083;27;20473;-92
2021/11/03 19:04:17;;;;;;;327.25;64.65;;;8.50;99.90;;;;;;5134398;27;20114;-92
2021/11/03 19:06:52;;;;;;;169.32;42.17;;;8.50;99.90;;;;;;5134069;27;20437;-93
2021/11/03 19:09:36;;;;;;;179.80;42.10;;;8.60;99.90;;;;;;5134186;27;20027;-92
2021/11/03 19:12:17;;;;;;;186.65;42.97;;;8.60;99.90;;;;;;5134761;27;20027;-92
2021/11/03 19:14:43;;;;;;;243.25;43.83;;;8.60;99.90;;;;;;5134658;27;20076;-92
2021/11/03 19:17:09;;;;;;;162.43;35.22;;;8.70;99.90;;;;;;5133611;27;20026;-92
2021/11/03 19:19:35;;;;;;;225.77;42.75;;;8.60;99.90;;;;;;5134200;27;20397;-92
2021/11/03 19:22:02;;;;;;;166.63;32.80;;;8.70;99.90;;;;;;5133625;27;20053;-92
2021/11/03 19:25:01;;;;;;;216.38;40.20;;;8.70;99.90;;;;;;5134620;27;20038;-92
2021/11/03 19:27:28;;;;;;;234.05;45.88;;;8.70;99.90;;;;;;5123347;27;20028;-91
2021/11/03 19:29:59;;;;;;;263.23;43.08;;;8.80;99.90;;;;;;5134122;27;20427;-92
2021/11/03 19:32:25;;;;;;;217.00;42.25;;;8.70;99.90;;;;;;5133659;27;20027;-92
2021/11/03 19:34:59;;;;;;;202.88;38.30;;;8.70;99.90;;;;;;5134368;27;20160;-92
2021/11/03 19:37:35;;;;;;;244.80;39.78;;;8.80;99.90;;;;;;5134486;28;20027;-91
2021/11/03 19:40:04;;;;;;;168.38;36.20;;;8.70;99.90;;;;;;5134195;28;20465;-92
2021/11/03 19:42:30;;;;;;;245.10;41.80;;;8.80;99.90;;;;;;5133724;28;20054;-92
2021/11/03 19:44:55;;;;;;;267.13;47.13;;;8.80;99.90;;;;;;5134106;28;20019;-92
2021/11/03 19:47:23;;;;;;;243.73;39.30;;;8.70;99.90;;;;;;5134103;28;20023;-91
2021/11/03 19:49:50;;;;;;;249.57;44.00;;;8.70;99.90;;;;;;5134226;28;20027;-91
2021/11/03 19:52:22;;;;;;;143.40;34.85;;;8.60;99.90;;;;;;5134114;27;20019;-92
2021/11/03 19:54:49;;;;;;;154.68;31.02;;;8.70;99.90;;;;;;5134233;27;20027;-91
2021/11/03 19:57:29;;;;;;;240.05;45.97;;;8.60;99.90;;;;;;5134202;27;20050;-91
2021/11/03 19:59:56;;;;;;;145.95;34.40;;;8.60;99.90;;;;;;5133732;28;20473;-91
2021/11/03 20:02:24;;;;;;;121.10;34.13;;;8.60;99.90;;;;;;5134273;28;20076;-91
2021/11/03 20:04:51;;;;;;;137.48;35.17;;;8.60;99.90;;;;;;5134200;27;20027;-91
2021/11/03 20:07:38;;;;;;;150.90;38.83;;;8.60;99.90;;;;;;5134272;28;20423;-91
2021/11/03 20:10:07;;;;;;;90.32;31.98;;;8.60;99.90;;;;;;5133148;28;20046;-91
2021/11/03 20:12:33;;;;;;;127.82;35.55;;;8.60;99.90;;;;;;5133586;28;20031;-91
2021/11/03 20:15:00;;;;;;;259.50;46.90;;;8.60;99.90;;;;;;5133177;28;20023;-90
2021/11/03 20:17:29;;;;;;;170.13;39.45;;;8.60;99.90;;;;;;5133787;28;20469;-90
2021/11/03 20:19:56;;;;;;;214.23;39.50;;;8.60;99.90;;;;;;5133157;28;20489;-90
2021/11/03 20:22:29;;;;;;;230.13;45.38;;;8.50;99.90;;;;;;5126796;27;20493;-90
2021/11/03 20:24:57;;;;;;;266.17;52.22;;;8.50;99.90;;;;;;5133732;28;20122;-90
2021/11/03 20:27:33;;;;;;;200.10;47.50;;;8.50;99.90;;;;;;5133954;27;20377;-90
2021/11/03 20:30:10;;;;;;;282.50;57.03;;;8.50;99.90;;;;;;5137660;27;20024;-90
2021/11/03 20:32:48;;;;;;;350.30;55.58;;;8.40;99.90;;;;;;5137402;27;20035;-90
2021/11/03 20:35:33;;;;;;;315.15;65.55;;;8.30;99.90;;;;;;5138634;27;20020;-91
2021/11/03 20:38:03;;;;;;;195.90;58.25;;;8.20;99.90;;;;;;5136924;27;20023;-90
2021/11/03 20:40:29;;;;;;;411.35;77.15;;;8.10;99.90;;;;;;5137351;27;20114;-90
2021/11/03 20:42:56;;;;;;;266.30;54.58;;;8.20;99.90;;;;;;5138292;27;20043;-90
2021/11/03 20:45:33;;;;;;;181.27;46.17;;;8.20;99.90;;;;;;5137406;27;20015;-90
2021/11/03 20:48:02;;;;;;;273.27;54.72;;;8.20;99.90;;;;;;5136950;27;20050;-91
2021/11/03 20:50:40;;;;;;;153.18;39.08;;;8.20;99.90;;;;;;5137349;27;20023;-90
2021/11/03 20:53:14;;;;;;;190.98;43.33;;;8.20;99.90;;;;;;5137265;27;20443;-90
2021/11/03 20:55:42;;;;;;;389.77;66.38;;;8.20;99.90;;;;;;5137222;27;20030;-90
2021/11/03 20:58:08;;;;;;;326.30;66.07;;;8.20;99.90;;;;;;5138351;27;20562;-90
2021/11/03 21:00:36;;;;;;;321.10;62.00;;;8.20;99.90;;;;;;5136715;27;20023;-90
2021/11/03 21:03:02;;;;;;;250.20;50.38;;;8.20;99.90;;;;;;5153387;27;20019;-90
2021/11/03 21:05:30;;;;;;;290.23;59.45;;;8.20;99.90;;;;;;5136786;27;20064;-90
2021/11/03 21:07:56;;;;;;;184.05;45.50;;;8.10;99.90;;;;;;5137108;27;20419;-90
2021/11/03 21:10:22;;;;;;;84.28;38.70;;;8.10;99.90;;;;;;5136895;27;20030;-90
2021/11/03 21:12:49;;;;;;;151.90;48.03;;;8.00;99.90;;;;;;5137593;27;20454;-90
2021/11/03 21:15:17;;;;;;;572.28;92.80;;;8.00;99.90;;;;;;5136573;27;20083;-90
2021/11/03 21:17:43;;;;;;;187.88;50.83;;;8.00;99.90;;;;;;5137014;27;20058;-90
2021/11/03 21:20:14;;;;;;;342.23;69.18;;;8.00;99.90;;;;;;5136847;27;20030;-90
2021/11/03 21:22:41;;;;;;;439.27;76.25;;;8.00;99.90;;;;;;5136965;27;20462;-90
2021/11/03 21:25:07;;;;;;;117.82;42.85;;;7.90;99.90;;;;;;5136670;27;20019;-90
2021/11/03 21:27:34;;;;;;;191.10;51.42;;;7.90;99.90;;;;;;5136698;27;20026;-90
2021/11/03 21:30:01;;;;;;;97.20;44.08;;;7.90;99.90;;;;;;5137461;27;20483;-89
2021/11/03 21:32:26;;;;;;;247.35;60.25;;;7.80;99.90;;;;;;5136522;27;20035;-90
2021/11/03 21:34:52;;;;;;;218.07;55.38;;;7.80;99.90;;;;;;5136588;27;20023;-89
2021/11/03 21:37:18;;;;;;;518.80;84.68;;;7.70;99.90;;;;;;5136389;27;20109;-89
2021/11/03 21:39:44;;;;;;;467.30;83.45;;;7.70;99.90;;;;;;5137438;27;20105;-90
2021/11/03 21:42:10;;;;;;;231.20;58.90;;;7.60;99.90;;;;;;5137271;27;20047;-90
2021/11/03 21:44:37;;;;;;;290.67;68.53;;;7.60;99.90;;;;;;5136474;27;20149;-89
2021/11/03 21:47:04;;;;;;;105.82;43.42;;;7.50;99.90;;;;;;5136495;27;20028;-89
2021/11/03 21:49:30;;;;;;;197.10;56.15;;;7.50;99.90;;;;;;5136543;27;20057;-89
2021/11/03 21:51:56;;;;;;;121.35;48.88;;;7.50;99.90;;;;;;5135776;27;20027;-90
2021/11/03 21:54:22;;;;;;;120.50;46.67;;;7.50;99.90;;;;;;5136155;27;20034;-90
2021/11/03 21:56:50;;;;;;;210.10;59.17;;;7.50;99.90;;;;;;5136102;27;20114;-90
2021/11/03 21:59:16;;;;;;;306.95;70.13;;;7.50;99.90;;;;;;5136811;27;20031;-90
2021/11/03 22:01:42;;;;;;;395.25;74.38;;;7.50;99.90;;;;;;5136957;27;20473;-89
2021/11/03 22:04:08;;;;;;;530.72;81.47;;;7.50;99.90;;;;;;5136044;27;20521;-90
2021/11/03 22:06:34;;;;;;;392.05;74.07;;;7.50;99.90;;;;;;5135559;27;20098;-89
2021/11/03 22:08:59;;;;;;;201.13;48.58;;;7.50;99.90;;;;;;5135959;27;20118;-90
2021/11/03 22:11:26;;;;;;;175.07;43.85;;;7.50;99.90;;;;;;5135661;27;20114;-90
2021/11/03 22:13:55;;;;;;;122.55;43.20;;;7.50;99.90;;;;;;5136047;27;20107;-90
2021/11/03 22:16:22;;;;;;;155.90;40.75;;;7.50;99.90;;;;;;5135739;27;20102;-89
2021/11/03 22:18:48;;;;;;;106.80;38.85;;;7.40;99.90;;;;;;5135739;27;20056;-90
2021/11/03 22:21:15;;;;;;;264.10;57.92;;;7.40;99.90;;;;;;5135022;27;20370;-89
2021/11/03 22:23:41;;;;;;;296.02;55.60;;;7.40;99.90;;;;;;5135975;27;20114;-90
2021/11/03 22:26:07;;;;;;;233.20;53.70;;;7.40;99.90;;;;;;5135719;27;20435;-90
2021/11/03 22:28:33;;;;;;;121.18;43.67;;;7.40;99.90;;;;;;5135525;27;20016;-90
2021/11/03 22:30:59;;;;;;;214.70;45.42;;;7.40;99.90;;;;;;5135356;27;20029;-90
2021/11/03 22:33:26;;;;;;;475.98;77.15;;;7.40;99.90;;;;;;5135397;27;20114;-89
2021/11/03 22:35:52;;;;;;;104.43;40.80;;;7.30;99.90;;;;;;5135460;27;20019;-89
2021/11/03 22:38:18;;;;;;;285.60;57.53;;;7.20;99.90;;;;;;5135190;27;20023;-90
2021/11/03 22:40:44;;;;;;;163.57;43.58;;;7.20;99.90;;;;;;5135250;27;20035;-89
2021/11/03 22:43:13;;;;;;;315.20;63.67;;;7.20;99.90;;;;;;5134991;27;20054;-89
2021/11/03 22:45:39;;;;;;;282.05;60.63;;;7.20;99.90;;;;;;5118224;27;20019;-90
2021/11/03 22:48:05;;;;;;;290.27;66.30;;;7.10;99.90;;;;;;5134981;27;20051;-89
2021/11/03 22:50:32;;;;;;;186.57;46.08;;;7.10;99.90;;;;;;5134689;27;20023;-90
2021/11/03 22:52:58;;;;;;;518.95;80.97;;;7.00;99.90;;;;;;5134832;27;20027;-89
2021/11/03 22:55:24;;;;;;;343.60;62.90;;;7.10;99.90;;;;;;5134996;27;20046;-89
2021/11/03 22:57:51;;;;;;;387.60;65.80;;;7.00;99.90;;;;;;5136003;27;20052;-89
2021/11/03 23:00:23;;;;;;;582.63;83.32;;;7.00;99.90;;;;;;5134919;27;20105;-90
2021/11/03 23:02:49;;;;;;;219.15;46.58;;;7.00;99.90;;;;;;5134987;27;20042;-89
2021/11/03 23:05:14;;;;;;;206.00;42.28;;;6.90;99.90;;;;;;5135107;27;20059;-89
2021/11/03 23:07:40;;;;;;;169.23;46.97;;;6.90;99.90;;;;;;5134435;27;20061;-89
2021/11/03 23:10:07;;;;;;;174.82;50.47;;;7.00;99.90;;;;;;5134788;27;20026;-90
2021/11/03 23:12:33;;;;;;;308.08;56.88;;;7.00;99.90;;;;;;5135811;27;20021;-89
2021/11/03 23:14:59;;;;;;;442.45;67.70;;;7.00;99.90;;;;;;5134727;27;20024;-89
2021/11/03 23:17:24;;;;;;;351.73;60.78;;;7.00;99.90;;;;;;5134601;27;20221;-89
2021/11/03 23:19:50;;;;;;;419.75;64.53;;;7.00;99.90;;;;;;5134464;27;20027;-89
2021/11/03 23:22:17;;;;;;;391.27;59.75;;;7.00;99.90;;;;;;5135282;27;20019;-89
2021/11/03 23:24:45;;;;;;;598.38;83.03;;;6.90;99.90;;;;;;5135566;27;20026;-90